sensor_id;sensor_type;location;lat;lon;timestamp;P1;durP1;ratioP1;P2;durP2;ratioP2
49103;SDS011;34915;52.926;11.116;2022-12-11T00:00:15;7.00;;;4.30;;
49103;SDS011;34915;52.926;11.116;2022-12-11T00:02:41;6.93;;;3.90;;
49103;SDS011;34915;52.926;11.116;2022-12-11T00:05:07;5.70;;;3.47;;
49103;SDS011;34915;52.926;11.116;2022-12-11T00:07:33;5.60;;;3.50;;
49103;SDS011;34915;52.926;11.116;2022-12-11T00:09:58;6.20;;;3.70;;
49103;SDS011;34915;52.926;11.116;2022-12-11T00:12:24;6.10;;;3.90;;
49103;SDS011;34915;52.926;11.116;2022-12-11T00:14:49;6.77;;;3.70;;
49103;SDS011;34915;52.926;11.116;2022-12-11T00:17:15;5.50;;;3.40;;
49103;SDS011;34915;52.926;11.116;2022-12-11T00:19:40;7.37;;;3.77;;
49103;SDS011;34915;52.926;11.116;2022-12-11T00:22:06;6.43;;;3.53;;
49103;SDS011;34915;52.926;11.116;2022-12-11T00:24:32;6.47;;;3.80;;
49103;SDS011;34915;52.926;11.116;2022-12-11T00:26:57;6.97;;;4.10;;
49103;SDS011;34915;52.926;11.116;2022-12-11T00:29:23;6.50;;;3.70;;
49103;SDS011;34915;52.926;11.116;2022-12-11T00:31:48;6.03;;;3.63;;
49103;SDS011;34915;52.926;11.116;2022-12-11T00:34:14;4.83;;;3.43;;
49103;SDS011;34915;52.926;11.116;2022-12-11T00:36:40;6.67;;;3.80;;
49103;SDS011;34915;52.926;11.116;2022-12-11T00:39:05;5.40;;;3.37;;
49103;SDS011;34915;52.926;11.116;2022-12-11T00:41:31;6.77;;;4.50;;
49103;SDS011;34915;52.926;11.116;2022-12-11T00:43:57;6.13;;;4.23;;
49103;SDS011;34915;52.926;11.116;2022-12-11T00:46:22;6.23;;;3.90;;
49103;SDS011;34915;52.926;11.116;2022-12-11T00:48:48;5.83;;;3.87;;
49103;SDS011;34915;52.926;11.116;2022-12-11T00:51:14;6.17;;;3.60;;
49103;SDS011;34915;52.926;11.116;2022-12-11T00:53:40;5.33;;;3.30;;
49103;SDS011;34915;52.926;11.116;2022-12-11T00:56:10;6.43;;;3.90;;
49103;SDS011;34915;52.926;11.116;2022-12-11T00:58:37;6.30;;;3.43;;
49103;SDS011;34915;52.926;11.116;2022-12-11T01:01:07;7.23;;;4.23;;
49103;SDS011;34915;52.926;11.116;2022-12-11T01:03:34;5.63;;;4.20;;
49103;SDS011;34915;52.926;11.116;2022-12-11T01:06:00;4.37;;;3.27;;
49103;SDS011;34915;52.926;11.116;2022-12-11T01:08:26;4.40;;;3.13;;
49103;SDS011;34915;52.926;11.116;2022-12-11T01:10:59;5.63;;;3.77;;
49103;SDS011;34915;52.926;11.116;2022-12-11T01:13:25;6.27;;;3.63;;
49103;SDS011;34915;52.926;11.116;2022-12-11T01:15:51;6.53;;;4.03;;
49103;SDS011;34915;52.926;11.116;2022-12-11T01:18:17;5.50;;;3.77;;
49103;SDS011;34915;52.926;11.116;2022-12-11T01:20:42;6.60;;;3.93;;
49103;SDS011;34915;52.926;11.116;2022-12-11T01:23:08;5.80;;;3.87;;
49103;SDS011;34915;52.926;11.116;2022-12-11T01:25:35;6.77;;;3.97;;
49103;SDS011;34915;52.926;11.116;2022-12-11T01:28:02;5.50;;;3.67;;
49103;SDS011;34915;52.926;11.116;2022-12-11T01:30:28;5.33;;;3.50;;
49103;SDS011;34915;52.926;11.116;2022-12-11T01:32:53;4.87;;;3.73;;
49103;SDS011;34915;52.926;11.116;2022-12-11T01:35:19;6.43;;;3.67;;
49103;SDS011;34915;52.926;11.116;2022-12-11T01:37:45;5.47;;;3.67;;
49103;SDS011;34915;52.926;11.116;2022-12-11T01:40:12;6.13;;;4.17;;
49103;SDS011;34915;52.926;11.116;2022-12-11T01:42:40;6.50;;;4.10;;
49103;SDS011;34915;52.926;11.116;2022-12-11T01:47:49;6.80;;;4.23;;
49103;SDS011;34915;52.926;11.116;2022-12-11T01:50:54;6.30;;;4.17;;
49103;SDS011;34915;52.926;11.116;2022-12-11T01:53:24;6.20;;;3.93;;
49103;SDS011;34915;52.926;11.116;2022-12-11T01:55:54;7.30;;;3.87;;
49103;SDS011;34915;52.926;11.116;2022-12-11T01:58:23;5.33;;;4.23;;
49103;SDS011;34915;52.926;11.116;2022-12-11T02:00:52;5.43;;;3.83;;
49103;SDS011;34915;52.926;11.116;2022-12-11T02:03:18;6.93;;;3.77;;
49103;SDS011;34915;52.926;11.116;2022-12-11T02:05:44;5.53;;;3.63;;
49103;SDS011;34915;52.926;11.116;2022-12-11T02:08:10;6.40;;;4.10;;
49103;SDS011;34915;52.926;11.116;2022-12-11T02:18:54;7.70;;;3.93;;
49103;SDS011;34915;52.926;11.116;2022-12-11T02:21:33;7.23;;;4.00;;
49103;SDS011;34915;52.926;11.116;2022-12-11T02:24:15;5.90;;;3.97;;
49103;SDS011;34915;52.926;11.116;2022-12-11T02:30:12;6.67;;;4.10;;
49103;SDS011;34915;52.926;11.116;2022-12-11T02:32:53;5.50;;;3.97;;
49103;SDS011;34915;52.926;11.116;2022-12-11T02:35:25;8.40;;;4.73;;
49103;SDS011;34915;52.926;11.116;2022-12-11T02:37:56;7.67;;;3.90;;
49103;SDS011;34915;52.926;11.116;2022-12-11T02:40:27;5.93;;;3.67;;
49103;SDS011;34915;52.926;11.116;2022-12-11T02:42:59;5.40;;;3.47;;
49103;SDS011;34915;52.926;11.116;2022-12-11T02:45:27;7.10;;;4.43;;
49103;SDS011;34915;52.926;11.116;2022-12-11T02:47:53;6.13;;;3.93;;
49103;SDS011;34915;52.926;11.116;2022-12-11T02:50:21;6.17;;;3.70;;
49103;SDS011;34915;52.926;11.116;2022-12-11T02:52:50;7.73;;;4.23;;
49103;SDS011;34915;52.926;11.116;2022-12-11T02:55:20;6.73;;;4.27;;
49103;SDS011;34915;52.926;11.116;2022-12-11T02:57:48;9.03;;;4.37;;
49103;SDS011;34915;52.926;11.116;2022-12-11T03:00:17;6.97;;;4.60;;
49103;SDS011;34915;52.926;11.116;2022-12-11T03:02:43;5.50;;;3.70;;
49103;SDS011;34915;52.926;11.116;2022-12-11T03:05:10;7.13;;;4.10;;
49103;SDS011;34915;52.926;11.116;2022-12-11T03:07:39;5.63;;;3.47;;
49103;SDS011;34915;52.926;11.116;2022-12-11T03:10:06;7.33;;;4.40;;
49103;SDS011;34915;52.926;11.116;2022-12-11T03:12:37;5.33;;;3.80;;
49103;SDS011;34915;52.926;11.116;2022-12-11T03:15:08;5.60;;;3.57;;
49103;SDS011;34915;52.926;11.116;2022-12-11T03:17:43;5.30;;;3.53;;
49103;SDS011;34915;52.926;11.116;2022-12-11T03:20:18;5.90;;;3.43;;
49103;SDS011;34915;52.926;11.116;2022-12-11T03:25:39;4.77;;;3.60;;
49103;SDS011;34915;52.926;11.116;2022-12-11T03:28:13;6.30;;;4.10;;
49103;SDS011;34915;52.926;11.116;2022-12-11T03:30:47;7.20;;;4.07;;
49103;SDS011;34915;52.926;11.116;2022-12-11T03:33:18;5.33;;;3.70;;
49103;SDS011;34915;52.926;11.116;2022-12-11T03:35:54;6.77;;;3.80;;
49103;SDS011;34915;52.926;11.116;2022-12-11T03:38:46;4.93;;;3.73;;
49103;SDS011;34915;52.926;11.116;2022-12-11T03:41:17;5.33;;;3.43;;
49103;SDS011;34915;52.926;11.116;2022-12-11T03:43:45;6.30;;;3.93;;
49103;SDS011;34915;52.926;11.116;2022-12-11T03:46:14;6.47;;;4.07;;
49103;SDS011;34915;52.926;11.116;2022-12-11T03:48:41;6.50;;;4.07;;
49103;SDS011;34915;52.926;11.116;2022-12-11T03:51:09;5.30;;;3.50;;
49103;SDS011;34915;52.926;11.116;2022-12-11T03:53:34;6.97;;;3.83;;
49103;SDS011;34915;52.926;11.116;2022-12-11T03:56:02;7.07;;;3.90;;
49103;SDS011;34915;52.926;11.116;2022-12-11T03:58:30;6.60;;;3.90;;
49103;SDS011;34915;52.926;11.116;2022-12-11T04:00:56;5.07;;;3.50;;
49103;SDS011;34915;52.926;11.116;2022-12-11T04:03:25;9.00;;;4.50;;
49103;SDS011;34915;52.926;11.116;2022-12-11T04:05:53;6.10;;;3.67;;
49103;SDS011;34915;52.926;11.116;2022-12-11T04:08:20;7.30;;;4.40;;
49103;SDS011;34915;52.926;11.116;2022-12-11T04:10:46;8.47;;;4.57;;
49103;SDS011;34915;52.926;11.116;2022-12-11T04:13:13;6.77;;;3.40;;
49103;SDS011;34915;52.926;11.116;2022-12-11T04:15:39;6.37;;;3.57;;
49103;SDS011;34915;52.926;11.116;2022-12-11T04:18:05;5.87;;;3.60;;
49103;SDS011;34915;52.926;11.116;2022-12-11T04:20:53;4.67;;;3.00;;
49103;SDS011;34915;52.926;11.116;2022-12-11T04:23:38;7.30;;;3.83;;
49103;SDS011;34915;52.926;11.116;2022-12-11T04:26:22;6.73;;;4.30;;
49103;SDS011;34915;52.926;11.116;2022-12-11T04:28:48;5.67;;;3.73;;
49103;SDS011;34915;52.926;11.116;2022-12-11T04:31:15;7.87;;;4.20;;
49103;SDS011;34915;52.926;11.116;2022-12-11T04:33:44;8.30;;;4.03;;
49103;SDS011;34915;52.926;11.116;2022-12-11T04:36:10;8.23;;;4.30;;
49103;SDS011;34915;52.926;11.116;2022-12-11T04:38:36;7.87;;;4.67;;
49103;SDS011;34915;52.926;11.116;2022-12-11T04:41:03;7.70;;;4.47;;
49103;SDS011;34915;52.926;11.116;2022-12-11T04:43:31;9.33;;;5.00;;
49103;SDS011;34915;52.926;11.116;2022-12-11T04:46:04;7.33;;;4.03;;
49103;SDS011;34915;52.926;11.116;2022-12-11T04:48:30;6.37;;;3.67;;
49103;SDS011;34915;52.926;11.116;2022-12-11T04:50:56;8.10;;;4.30;;
49103;SDS011;34915;52.926;11.116;2022-12-11T04:53:22;7.37;;;4.20;;
49103;SDS011;34915;52.926;11.116;2022-12-11T04:55:47;9.57;;;4.70;;
49103;SDS011;34915;52.926;11.116;2022-12-11T04:58:13;8.07;;;4.20;;
49103;SDS011;34915;52.926;11.116;2022-12-11T05:00:39;7.37;;;4.20;;
49103;SDS011;34915;52.926;11.116;2022-12-11T05:03:05;7.33;;;3.97;;
49103;SDS011;34915;52.926;11.116;2022-12-11T05:05:31;8.57;;;4.60;;
49103;SDS011;34915;52.926;11.116;2022-12-11T05:07:56;10.70;;;4.67;;
49103;SDS011;34915;52.926;11.116;2022-12-11T05:10:22;6.57;;;3.93;;
49103;SDS011;34915;52.926;11.116;2022-12-11T05:12:47;6.43;;;3.87;;
49103;SDS011;34915;52.926;11.116;2022-12-11T05:15:16;7.87;;;4.33;;
49103;SDS011;34915;52.926;11.116;2022-12-11T05:17:42;8.73;;;4.43;;
49103;SDS011;34915;52.926;11.116;2022-12-11T05:20:08;8.40;;;4.47;;
49103;SDS011;34915;52.926;11.116;2022-12-11T05:22:34;8.13;;;4.90;;
49103;SDS011;34915;52.926;11.116;2022-12-11T05:25:01;9.53;;;4.43;;
49103;SDS011;34915;52.926;11.116;2022-12-11T05:27:29;6.67;;;4.30;;
49103;SDS011;34915;52.926;11.116;2022-12-11T05:29:54;6.47;;;3.60;;
49103;SDS011;34915;52.926;11.116;2022-12-11T05:32:20;6.73;;;3.90;;
49103;SDS011;34915;52.926;11.116;2022-12-11T05:34:45;8.23;;;4.07;;
49103;SDS011;34915;52.926;11.116;2022-12-11T05:37:11;7.70;;;4.17;;
49103;SDS011;34915;52.926;11.116;2022-12-11T05:39:36;6.90;;;3.73;;
49103;SDS011;34915;52.926;11.116;2022-12-11T05:42:02;7.77;;;4.40;;
49103;SDS011;34915;52.926;11.116;2022-12-11T05:44:28;8.07;;;4.60;;
49103;SDS011;34915;52.926;11.116;2022-12-11T05:46:54;7.97;;;4.73;;
49103;SDS011;34915;52.926;11.116;2022-12-11T05:49:20;10.13;;;5.13;;
49103;SDS011;34915;52.926;11.116;2022-12-11T05:51:46;12.40;;;6.00;;
49103;SDS011;34915;52.926;11.116;2022-12-11T05:54:12;10.90;;;5.43;;
49103;SDS011;34915;52.926;11.116;2022-12-11T05:56:40;11.10;;;5.93;;
49103;SDS011;34915;52.926;11.116;2022-12-11T05:59:06;11.70;;;6.63;;
49103;SDS011;34915;52.926;11.116;2022-12-11T06:01:38;11.10;;;5.30;;
49103;SDS011;34915;52.926;11.116;2022-12-11T06:04:06;12.27;;;5.00;;
49103;SDS011;34915;52.926;11.116;2022-12-11T06:06:33;9.67;;;5.00;;
49103;SDS011;34915;52.926;11.116;2022-12-11T06:08:59;7.73;;;4.23;;
49103;SDS011;34915;52.926;11.116;2022-12-11T06:11:29;7.83;;;4.07;;
49103;SDS011;34915;52.926;11.116;2022-12-11T06:13:56;9.47;;;5.03;;
49103;SDS011;34915;52.926;11.116;2022-12-11T06:16:22;8.77;;;4.80;;
49103;SDS011;34915;52.926;11.116;2022-12-11T06:18:49;7.10;;;4.23;;
49103;SDS011;34915;52.926;11.116;2022-12-11T06:21:21;9.00;;;4.70;;
49103;SDS011;34915;52.926;11.116;2022-12-11T06:23:58;8.83;;;5.00;;
49103;SDS011;34915;52.926;11.116;2022-12-11T06:26:25;8.73;;;4.93;;
49103;SDS011;34915;52.926;11.116;2022-12-11T06:28:53;9.07;;;4.47;;
49103;SDS011;34915;52.926;11.116;2022-12-11T06:31:19;11.53;;;4.80;;
49103;SDS011;34915;52.926;11.116;2022-12-11T06:33:45;7.27;;;4.50;;
49103;SDS011;34915;52.926;11.116;2022-12-11T06:36:15;11.27;;;5.53;;
49103;SDS011;34915;52.926;11.116;2022-12-11T06:38:42;10.80;;;5.50;;
49103;SDS011;34915;52.926;11.116;2022-12-11T06:41:08;10.20;;;5.27;;
49103;SDS011;34915;52.926;11.116;2022-12-11T06:43:37;9.13;;;5.80;;
49103;SDS011;34915;52.926;11.116;2022-12-11T06:46:11;7.97;;;5.00;;
49103;SDS011;34915;52.926;11.116;2022-12-11T06:48:41;8.70;;;4.83;;
49103;SDS011;34915;52.926;11.116;2022-12-11T06:51:08;7.43;;;4.10;;
49103;SDS011;34915;52.926;11.116;2022-12-11T06:53:35;11.53;;;5.07;;
49103;SDS011;34915;52.926;11.116;2022-12-11T06:56:02;9.43;;;5.47;;
49103;SDS011;34915;52.926;11.116;2022-12-11T06:58:29;9.37;;;4.27;;
49103;SDS011;34915;52.926;11.116;2022-12-11T07:00:55;7.13;;;4.07;;
49103;SDS011;34915;52.926;11.116;2022-12-11T07:03:20;13.57;;;5.63;;
49103;SDS011;34915;52.926;11.116;2022-12-11T07:05:46;11.50;;;6.57;;
49103;SDS011;34915;52.926;11.116;2022-12-11T07:08:11;13.73;;;6.83;;
49103;SDS011;34915;52.926;11.116;2022-12-11T07:10:37;11.33;;;7.00;;
49103;SDS011;34915;52.926;11.116;2022-12-11T07:13:03;11.53;;;6.20;;
49103;SDS011;34915;52.926;11.116;2022-12-11T07:15:28;12.80;;;6.10;;
49103;SDS011;34915;52.926;11.116;2022-12-11T07:17:54;11.87;;;6.83;;
49103;SDS011;34915;52.926;11.116;2022-12-11T07:20:19;11.40;;;6.27;;
49103;SDS011;34915;52.926;11.116;2022-12-11T07:22:45;13.80;;;6.83;;
49103;SDS011;34915;52.926;11.116;2022-12-11T07:25:11;10.93;;;5.97;;
49103;SDS011;34915;52.926;11.116;2022-12-11T07:27:36;11.77;;;6.17;;
49103;SDS011;34915;52.926;11.116;2022-12-11T07:30:02;11.97;;;5.37;;
49103;SDS011;34915;52.926;11.116;2022-12-11T07:32:28;9.57;;;5.40;;
49103;SDS011;34915;52.926;11.116;2022-12-11T07:34:54;14.93;;;5.47;;
49103;SDS011;34915;52.926;11.116;2022-12-11T07:37:19;9.20;;;4.67;;
49103;SDS011;34915;52.926;11.116;2022-12-11T07:39:45;11.83;;;6.20;;
49103;SDS011;34915;52.926;11.116;2022-12-11T07:42:10;11.40;;;5.50;;
49103;SDS011;34915;52.926;11.116;2022-12-11T07:44:36;11.07;;;5.67;;
49103;SDS011;34915;52.926;11.116;2022-12-11T07:47:01;11.77;;;5.87;;
49103;SDS011;34915;52.926;11.116;2022-12-11T07:49:27;10.80;;;5.60;;
49103;SDS011;34915;52.926;11.116;2022-12-11T07:51:52;12.17;;;6.23;;
49103;SDS011;34915;52.926;11.116;2022-12-11T07:54:18;15.20;;;7.07;;
49103;SDS011;34915;52.926;11.116;2022-12-11T07:56:45;17.10;;;8.30;;
49103;SDS011;34915;52.926;11.116;2022-12-11T07:59:12;12.80;;;6.80;;
49103;SDS011;34915;52.926;11.116;2022-12-11T08:01:38;11.70;;;6.57;;
49103;SDS011;34915;52.926;11.116;2022-12-11T08:04:08;11.67;;;6.37;;
49103;SDS011;34915;52.926;11.116;2022-12-11T08:06:36;12.83;;;6.90;;
49103;SDS011;34915;52.926;11.116;2022-12-11T08:09:04;12.50;;;7.17;;
49103;SDS011;34915;52.926;11.116;2022-12-11T08:11:32;15.87;;;7.67;;
49103;SDS011;34915;52.926;11.116;2022-12-11T08:13:58;15.47;;;7.43;;
49103;SDS011;34915;52.926;11.116;2022-12-11T08:16:24;16.03;;;7.80;;
49103;SDS011;34915;52.926;11.116;2022-12-11T08:18:52;12.93;;;6.90;;
49103;SDS011;34915;52.926;11.116;2022-12-11T08:21:21;13.07;;;5.70;;
49103;SDS011;34915;52.926;11.116;2022-12-11T08:23:49;14.43;;;6.30;;
49103;SDS011;34915;52.926;11.116;2022-12-11T08:26:23;10.03;;;5.70;;
49103;SDS011;34915;52.926;11.116;2022-12-11T08:28:50;11.10;;;5.73;;
49103;SDS011;34915;52.926;11.116;2022-12-11T08:31:16;13.30;;;7.00;;
49103;SDS011;34915;52.926;11.116;2022-12-11T08:33:43;12.03;;;6.43;;
49103;SDS011;34915;52.926;11.116;2022-12-11T08:36:11;12.30;;;6.40;;
49103;SDS011;34915;52.926;11.116;2022-12-11T08:38:38;10.17;;;6.33;;
49103;SDS011;34915;52.926;11.116;2022-12-11T08:43:33;14.73;;;7.17;;
49103;SDS011;34915;52.926;11.116;2022-12-11T08:45:58;14.77;;;6.93;;
49103;SDS011;34915;52.926;11.116;2022-12-11T08:48:24;10.83;;;6.17;;
49103;SDS011;34915;52.926;11.116;2022-12-11T08:50:49;17.73;;;8.60;;
49103;SDS011;34915;52.926;11.116;2022-12-11T08:53:18;16.43;;;7.43;;
49103;SDS011;34915;52.926;11.116;2022-12-11T08:55:44;13.63;;;7.13;;
49103;SDS011;34915;52.926;11.116;2022-12-11T08:58:09;12.37;;;6.80;;
49103;SDS011;34915;52.926;11.116;2022-12-11T09:00:35;12.50;;;6.80;;
49103;SDS011;34915;52.926;11.116;2022-12-11T09:03:00;13.00;;;6.73;;
49103;SDS011;34915;52.926;11.116;2022-12-11T09:05:26;11.53;;;5.90;;
49103;SDS011;34915;52.926;11.116;2022-12-11T09:07:52;12.13;;;6.70;;
49103;SDS011;34915;52.926;11.116;2022-12-11T09:10:17;13.03;;;6.63;;
49103;SDS011;34915;52.926;11.116;2022-12-11T09:12:43;11.00;;;6.40;;
49103;SDS011;34915;52.926;11.116;2022-12-11T09:15:08;12.93;;;6.90;;
49103;SDS011;34915;52.926;11.116;2022-12-11T09:17:34;12.87;;;5.97;;
49103;SDS011;34915;52.926;11.116;2022-12-11T09:20:00;12.53;;;6.97;;
49103;SDS011;34915;52.926;11.116;2022-12-11T09:22:26;12.63;;;6.97;;
49103;SDS011;34915;52.926;11.116;2022-12-11T09:24:51;9.90;;;6.20;;
49103;SDS011;34915;52.926;11.116;2022-12-11T09:27:17;12.43;;;6.60;;
49103;SDS011;34915;52.926;11.116;2022-12-11T09:29:45;14.73;;;7.37;;
49103;SDS011;34915;52.926;11.116;2022-12-11T09:32:11;11.87;;;6.90;;
49103;SDS011;34915;52.926;11.116;2022-12-11T09:34:36;16.60;;;7.70;;
49103;SDS011;34915;52.926;11.116;2022-12-11T09:37:02;14.07;;;7.63;;
49103;SDS011;34915;52.926;11.116;2022-12-11T09:39:28;13.87;;;6.13;;
49103;SDS011;34915;52.926;11.116;2022-12-11T09:42:05;12.60;;;6.47;;
49103;SDS011;34915;52.926;11.116;2022-12-11T09:44:48;13.93;;;6.93;;
49103;SDS011;34915;52.926;11.116;2022-12-11T09:47:22;13.80;;;7.67;;
49103;SDS011;34915;52.926;11.116;2022-12-11T09:50:33;17.43;;;7.57;;
49103;SDS011;34915;52.926;11.116;2022-12-11T09:55:20;14.47;;;7.47;;
49103;SDS011;34915;52.926;11.116;2022-12-11T09:57:55;14.60;;;7.40;;
49103;SDS011;34915;52.926;11.116;2022-12-11T10:00:44;16.50;;;8.07;;
49103;SDS011;34915;52.926;11.116;2022-12-11T10:06:16;12.17;;;7.30;;
49103;SDS011;34915;52.926;11.116;2022-12-11T10:17:20;12.23;;;7.60;;
49103;SDS011;34915;52.926;11.116;2022-12-11T10:19:51;19.00;;;8.90;;
49103;SDS011;34915;52.926;11.116;2022-12-11T10:22:23;16.97;;;7.60;;
49103;SDS011;34915;52.926;11.116;2022-12-11T10:24:59;13.63;;;7.60;;
49103;SDS011;34915;52.926;11.116;2022-12-11T10:27:31;13.70;;;7.47;;
49103;SDS011;34915;52.926;11.116;2022-12-11T10:32:58;13.60;;;6.87;;
49103;SDS011;34915;52.926;11.116;2022-12-11T10:35:53;13.03;;;7.43;;
49103;SDS011;34915;52.926;11.116;2022-12-11T10:38:26;12.60;;;7.13;;
49103;SDS011;34915;52.926;11.116;2022-12-11T10:41:35;12.63;;;7.83;;
49103;SDS011;34915;52.926;11.116;2022-12-11T10:44:25;14.30;;;8.27;;
49103;SDS011;34915;52.926;11.116;2022-12-11T10:49:31;14.53;;;7.93;;
49103;SDS011;34915;52.926;11.116;2022-12-11T10:51:59;12.10;;;7.37;;
49103;SDS011;34915;52.926;11.116;2022-12-11T10:56:54;15.73;;;8.57;;
49103;SDS011;34915;52.926;11.116;2022-12-11T10:59:25;15.10;;;7.83;;
49103;SDS011;34915;52.926;11.116;2022-12-11T11:01:54;16.03;;;8.10;;
49103;SDS011;34915;52.926;11.116;2022-12-11T11:04:34;14.00;;;7.77;;
49103;SDS011;34915;52.926;11.116;2022-12-11T11:07:03;14.20;;;8.13;;
49103;SDS011;34915;52.926;11.116;2022-12-11T11:09:39;13.00;;;7.50;;
49103;SDS011;34915;52.926;11.116;2022-12-11T11:15:05;13.40;;;7.53;;
49103;SDS011;34915;52.926;11.116;2022-12-11T11:17:46;12.63;;;7.27;;
49103;SDS011;34915;52.926;11.116;2022-12-11T11:20:15;14.27;;;7.83;;
49103;SDS011;34915;52.926;11.116;2022-12-11T11:22:54;13.10;;;7.53;;
49103;SDS011;34915;52.926;11.116;2022-12-11T11:25:25;14.30;;;8.03;;
49103;SDS011;34915;52.926;11.116;2022-12-11T11:27:54;13.73;;;7.93;;
49103;SDS011;34915;52.926;11.116;2022-12-11T11:30:23;14.97;;;7.83;;
49103;SDS011;34915;52.926;11.116;2022-12-11T11:33:24;13.10;;;7.23;;
49103;SDS011;34915;52.926;11.116;2022-12-11T11:35:58;10.60;;;6.97;;
49103;SDS011;34915;52.926;11.116;2022-12-11T11:43:51;10.57;;;6.50;;
49103;SDS011;34915;52.926;11.116;2022-12-11T11:46:28;15.40;;;6.90;;
49103;SDS011;34915;52.926;11.116;2022-12-11T11:57:56;12.10;;;6.37;;
49103;SDS011;34915;52.926;11.116;2022-12-11T12:02:53;11.43;;;6.13;;
49103;SDS011;34915;52.926;11.116;2022-12-11T12:05:24;12.00;;;7.20;;
49103;SDS011;34915;52.926;11.116;2022-12-11T12:10:59;11.77;;;6.53;;
49103;SDS011;34915;52.926;11.116;2022-12-11T12:13:31;11.43;;;6.27;;
49103;SDS011;34915;52.926;11.116;2022-12-11T12:16:06;13.23;;;6.77;;
49103;SDS011;34915;52.926;11.116;2022-12-11T12:18:47;12.40;;;6.80;;
49103;SDS011;34915;52.926;11.116;2022-12-11T12:21:35;10.90;;;6.30;;
49103;SDS011;34915;52.926;11.116;2022-12-11T12:26:30;11.60;;;6.47;;
49103;SDS011;34915;52.926;11.116;2022-12-11T12:49:03;11.07;;;6.23;;
49103;SDS011;34915;52.926;11.116;2022-12-11T12:51:37;12.13;;;7.00;;
49103;SDS011;34915;52.926;11.116;2022-12-11T12:54:06;12.17;;;6.50;;
49103;SDS011;34915;52.926;11.116;2022-12-11T12:56:38;12.97;;;6.83;;
49103;SDS011;34915;52.926;11.116;2022-12-11T12:59:16;10.53;;;6.27;;
49103;SDS011;34915;52.926;11.116;2022-12-11T13:01:47;10.73;;;6.20;;
49103;SDS011;34915;52.926;11.116;2022-12-11T13:04:54;11.27;;;6.67;;
49103;SDS011;34915;52.926;11.116;2022-12-11T13:07:21;10.17;;;6.27;;
49103;SDS011;34915;52.926;11.116;2022-12-11T13:09:58;10.97;;;6.47;;
49103;SDS011;34915;52.926;11.116;2022-12-11T13:12:30;10.40;;;6.17;;
49103;SDS011;34915;52.926;11.116;2022-12-11T13:14:58;11.97;;;6.87;;
49103;SDS011;34915;52.926;11.116;2022-12-11T13:17:33;11.57;;;5.53;;
49103;SDS011;34915;52.926;11.116;2022-12-11T13:20:20;10.97;;;6.63;;
49103;SDS011;34915;52.926;11.116;2022-12-11T13:22:52;11.13;;;6.10;;
49103;SDS011;34915;52.926;11.116;2022-12-11T13:27:51;17.13;;;9.73;;
49103;SDS011;34915;52.926;11.116;2022-12-11T13:32:55;10.50;;;6.37;;
49103;SDS011;34915;52.926;11.116;2022-12-11T13:35:26;11.47;;;6.33;;
49103;SDS011;34915;52.926;11.116;2022-12-11T13:37:53;13.20;;;6.80;;
49103;SDS011;34915;52.926;11.116;2022-12-11T13:40:27;12.03;;;6.53;;
49103;SDS011;34915;52.926;11.116;2022-12-11T13:43:31;10.63;;;6.20;;
49103;SDS011;34915;52.926;11.116;2022-12-11T13:45:55;11.63;;;6.50;;
49103;SDS011;34915;52.926;11.116;2022-12-11T13:48:26;11.17;;;5.87;;
49103;SDS011;34915;52.926;11.116;2022-12-11T13:50:56;12.43;;;6.40;;
49103;SDS011;34915;52.926;11.116;2022-12-11T13:53:23;10.83;;;6.07;;
49103;SDS011;34915;52.926;11.116;2022-12-11T13:55:56;8.97;;;5.57;;
49103;SDS011;34915;52.926;11.116;2022-12-11T13:58:26;11.43;;;6.27;;
49103;SDS011;34915;52.926;11.116;2022-12-11T14:03:27;8.80;;;5.50;;
49103;SDS011;34915;52.926;11.116;2022-12-11T14:05:52;11.10;;;6.00;;
49103;SDS011;34915;52.926;11.116;2022-12-11T14:08:22;10.03;;;5.17;;
49103;SDS011;34915;52.926;11.116;2022-12-11T14:10:54;9.77;;;5.90;;
49103;SDS011;34915;52.926;11.116;2022-12-11T14:13:30;10.67;;;5.93;;
49103;SDS011;34915;52.926;11.116;2022-12-11T14:15:58;12.43;;;6.63;;
49103;SDS011;34915;52.926;11.116;2022-12-11T14:18:25;10.73;;;5.97;;
49103;SDS011;34915;52.926;11.116;2022-12-11T14:20:54;10.63;;;5.80;;
49103;SDS011;34915;52.926;11.116;2022-12-11T14:23:23;10.93;;;6.27;;
49103;SDS011;34915;52.926;11.116;2022-12-11T14:25:51;11.13;;;6.60;;
49103;SDS011;34915;52.926;11.116;2022-12-11T14:28:22;12.47;;;6.73;;
49103;SDS011;34915;52.926;11.116;2022-12-11T14:30:53;11.97;;;6.37;;
49103;SDS011;34915;52.926;11.116;2022-12-11T14:33:22;11.87;;;6.37;;
49103;SDS011;34915;52.926;11.116;2022-12-11T14:35:53;9.57;;;6.00;;
49103;SDS011;34915;52.926;11.116;2022-12-11T14:40:56;10.03;;;5.90;;
49103;SDS011;34915;52.926;11.116;2022-12-11T14:43:47;12.13;;;5.70;;
49103;SDS011;34915;52.926;11.116;2022-12-11T14:46:16;12.17;;;6.00;;
49103;SDS011;34915;52.926;11.116;2022-12-11T14:49:16;12.43;;;6.30;;
49103;SDS011;34915;52.926;11.116;2022-12-11T14:51:47;10.60;;;6.10;;
49103;SDS011;34915;52.926;11.116;2022-12-11T14:54:17;9.80;;;5.40;;
49103;SDS011;34915;52.926;11.116;2022-12-11T14:56:51;10.00;;;5.43;;
49103;SDS011;34915;52.926;11.116;2022-12-11T14:59:19;12.27;;;5.80;;
49103;SDS011;34915;52.926;11.116;2022-12-11T15:01:56;10.13;;;5.90;;
49103;SDS011;34915;52.926;11.116;2022-12-11T15:04:27;11.63;;;6.30;;
49103;SDS011;34915;52.926;11.116;2022-12-11T15:06:56;10.63;;;6.60;;
49103;SDS011;34915;52.926;11.116;2022-12-11T15:09:35;13.60;;;6.63;;
49103;SDS011;34915;52.926;11.116;2022-12-11T15:12:09;11.60;;;5.90;;
49103;SDS011;34915;52.926;11.116;2022-12-11T15:14:41;12.13;;;6.37;;
49103;SDS011;34915;52.926;11.116;2022-12-11T15:17:11;11.20;;;6.33;;
49103;SDS011;34915;52.926;11.116;2022-12-11T15:19:38;11.97;;;6.67;;
49103;SDS011;34915;52.926;11.116;2022-12-11T15:22:07;11.90;;;6.03;;
49103;SDS011;34915;52.926;11.116;2022-12-11T15:24:41;11.77;;;6.60;;
49103;SDS011;34915;52.926;11.116;2022-12-11T15:32:40;15.77;;;6.10;;
49103;SDS011;34915;52.926;11.116;2022-12-11T15:35:19;10.00;;;6.83;;
49103;SDS011;34915;52.926;11.116;2022-12-11T15:37:50;11.57;;;6.30;;
49103;SDS011;34915;52.926;11.116;2022-12-11T15:40:21;12.03;;;5.97;;
49103;SDS011;34915;52.926;11.116;2022-12-11T15:42:47;12.40;;;6.10;;
49103;SDS011;34915;52.926;11.116;2022-12-11T15:45:20;10.53;;;6.03;;
49103;SDS011;34915;52.926;11.116;2022-12-11T15:47:49;29.27;;;16.70;;
49103;SDS011;34915;52.926;11.116;2022-12-11T15:50:16;41.60;;;22.40;;
49103;SDS011;34915;52.926;11.116;2022-12-11T15:52:43;24.47;;;13.83;;
49103;SDS011;34915;52.926;11.116;2022-12-11T15:55:10;13.13;;;7.40;;
49103;SDS011;34915;52.926;11.116;2022-12-11T15:57:37;11.50;;;7.47;;
49103;SDS011;34915;52.926;11.116;2022-12-11T16:00:13;10.20;;;6.60;;
49103;SDS011;34915;52.926;11.116;2022-12-11T16:02:41;12.67;;;7.60;;
49103;SDS011;34915;52.926;11.116;2022-12-11T16:05:07;9.90;;;6.27;;
49103;SDS011;34915;52.926;11.116;2022-12-11T16:07:33;11.33;;;6.70;;
49103;SDS011;34915;52.926;11.116;2022-12-11T16:10:00;11.90;;;6.70;;
49103;SDS011;34915;52.926;11.116;2022-12-11T16:12:25;17.83;;;9.30;;
49103;SDS011;34915;52.926;11.116;2022-12-11T16:14:51;18.20;;;10.30;;
49103;SDS011;34915;52.926;11.116;2022-12-11T16:17:16;16.33;;;9.40;;
49103;SDS011;34915;52.926;11.116;2022-12-11T16:19:42;13.80;;;8.03;;
49103;SDS011;34915;52.926;11.116;2022-12-11T16:22:08;12.60;;;7.57;;
49103;SDS011;34915;52.926;11.116;2022-12-11T16:24:35;17.80;;;9.13;;